createdAt,value
2017-10-11T00:00:53.932Z,13.7
2017-10-11T00:01:56.309Z,13.7
2017-10-11T00:02:59.054Z,13.7
2017-10-11T00:04:01.432Z,13.7
2017-10-11T00:05:03.811Z,13.7
2017-10-11T00:06:06.198Z,13.7
2017-10-11T00:07:08.568Z,13.7
2017-10-11T00:08:10.952Z,13.7
2017-10-11T00:09:13.327Z,13.7
2017-10-11T00:10:15.708Z,13.7
2017-10-11T00:11:18.087Z,13.7
2017-10-11T00:12:20.464Z,13.7
2017-10-11T00:13:22.845Z,13.7
2017-10-11T00:14:25.225Z,13.7
2017-10-11T00:15:27.603Z,13.7
2017-10-11T00:16:30.365Z,13.7
2017-10-11T00:17:32.735Z,13.7
2017-10-11T00:18:35.117Z,13.7
2017-10-11T00:19:37.491Z,13.7
2017-10-11T00:20:40.075Z,13.7
2017-10-11T00:21:42.809Z,13.7
2017-10-11T00:22:45.393Z,13.7
2017-10-11T00:23:47.769Z,13.7
2017-10-11T00:24:50.159Z,13.7
2017-10-11T00:25:52.545Z,13.7
2017-10-11T00:26:54.924Z,13.7
2017-10-11T00:27:57.305Z,13.7
2017-10-11T00:28:59.687Z,13.7
2017-10-11T00:30:02.063Z,13.7
2017-10-11T00:31:04.444Z,13.7
2017-10-11T00:32:06.842Z,13.7
2017-10-11T00:33:09.202Z,13.7
2017-10-11T00:34:11.582Z,13.7
2017-10-11T00:35:13.954Z,13.7
2017-10-11T00:36:16.326Z,13.7
2017-10-11T00:37:18.706Z,13.7
2017-10-11T00:38:21.085Z,13.8
2017-10-11T00:39:23.458Z,13.8
2017-10-11T00:40:25.846Z,13.8
2017-10-11T00:41:28.221Z,13.8
2017-10-11T00:42:30.611Z,13.8
2017-10-11T00:43:32.990Z,13.8
2017-10-11T00:44:35.373Z,13.8
2017-10-11T00:45:37.751Z,13.8
2017-10-11T00:46:40.127Z,13.8
2017-10-11T00:47:42.508Z,13.8
2017-10-11T00:48:45.232Z,13.8
2017-10-11T00:49:47.606Z,13.8
2017-10-11T00:50:49.983Z,13.8
2017-10-11T00:51:52.350Z,13.8
2017-10-11T00:52:54.733Z,13.8
2017-10-11T00:53:57.113Z,13.8
2017-10-11T00:54:59.492Z,13.8
2017-10-11T00:56:01.874Z,13.8
2017-10-11T00:57:04.268Z,13.8
2017-10-11T00:58:06.629Z,13.8
2017-10-11T00:59:09.016Z,13.8
2017-10-11T01:00:11.396Z,13.8
2017-10-11T01:01:13.776Z,13.8
2017-10-11T01:02:16.158Z,13.8
2017-10-11T01:03:18.530Z,13.8
2017-10-11T01:04:20.904Z,13.8
2017-10-11T01:05:23.640Z,13.8
2017-10-11T01:06:26.018Z,13.8
2017-10-11T01:07:28.388Z,13.8
2017-10-11T01:08:30.773Z,13.8
2017-10-11T01:09:33.156Z,13.8
2017-10-11T01:10:35.538Z,13.8
2017-10-11T01:11:37.918Z,13.8
2017-10-11T01:12:40.294Z,13.8
2017-10-11T01:13:42.675Z,13.8
2017-10-11T01:14:45.058Z,13.8
2017-10-11T01:15:47.432Z,13.8
2017-10-11T01:16:49.798Z,13.8
2017-10-11T01:17:52.179Z,13.8
2017-10-11T01:18:54.558Z,13.8
2017-10-11T01:19:56.936Z,13.8
2017-10-11T01:20:59.319Z,13.9
2017-10-11T01:22:01.699Z,13.8
2017-10-11T01:23:04.438Z,13.8
2017-10-11T01:24:06.826Z,13.8
2017-10-11T01:25:09.193Z,13.8
2017-10-11T01:26:11.566Z,13.9
2017-10-11T01:27:13.947Z,13.9
2017-10-11T01:28:17.017Z,13.8
2017-10-11T01:29:19.404Z,13.8
2017-10-11T01:30:21.777Z,13.8
2017-10-11T01:31:24.165Z,13.8
2017-10-11T01:32:26.538Z,13.8
2017-10-11T01:33:28.926Z,13.8
2017-10-11T01:34:31.650Z,13.9
2017-10-11T01:35:34.029Z,13.8
2017-10-11T01:36:36.410Z,13.8
2017-10-11T01:37:38.789Z,13.8
2017-10-11T01:38:41.166Z,13.8
2017-10-11T01:39:43.550Z,13.8
2017-10-11T01:40:45.928Z,13.8
2017-10-11T01:41:48.309Z,13.8
2017-10-11T01:42:50.690Z,13.8
2017-10-11T01:43:53.074Z,13.8
2017-10-11T01:44:55.454Z,13.8
2017-10-11T01:45:57.839Z,13.8
2017-10-11T01:47:00.196Z,13.8
2017-10-11T01:48:02.597Z,13.8
2017-10-11T01:49:04.969Z,13.8
2017-10-11T01:50:07.346Z,13.8
2017-10-11T01:51:09.725Z,13.8
2017-10-11T01:52:12.099Z,13.8
2017-10-11T01:53:14.475Z,13.8
2017-10-11T01:54:16.860Z,13.8
2017-10-11T01:55:19.239Z,13.8
2017-10-11T01:56:21.619Z,13.8
2017-10-11T01:57:23.982Z,13.8
2017-10-11T01:58:26.713Z,13.8
2017-10-11T01:59:29.102Z,13.8
2017-10-11T02:00:31.478Z,13.8
2017-10-11T02:01:34.222Z,13.8
2017-10-11T02:02:36.600Z,13.8
2017-10-11T02:03:38.979Z,13.8
2017-10-11T02:04:41.719Z,13.8
2017-10-11T02:05:44.095Z,13.8
2017-10-11T02:06:46.464Z,13.8
2017-10-11T02:07:48.842Z,13.8
2017-10-11T02:08:51.223Z,13.8
2017-10-11T02:09:53.607Z,13.8
2017-10-11T02:10:55.989Z,13.8
2017-10-11T02:11:58.723Z,13.8
2017-10-11T02:13:01.098Z,13.8
2017-10-11T02:14:03.485Z,13.8
2017-10-11T02:15:05.862Z,13.7
2017-10-11T02:16:08.231Z,13.7
2017-10-11T02:17:10.620Z,13.7
2017-10-11T02:18:12.995Z,13.7
2017-10-11T02:19:15.380Z,13.7
2017-10-11T02:20:17.762Z,13.7
2017-10-11T02:21:20.126Z,13.7
2017-10-11T02:22:22.514Z,13.7
2017-10-11T02:23:24.894Z,13.7
2017-10-11T02:24:27.276Z,13.7
2017-10-11T02:25:29.653Z,13.7
2017-10-11T02:26:32.026Z,13.7
2017-10-11T02:27:34.410Z,13.7
2017-10-11T02:28:36.797Z,13.7
2017-10-11T02:29:39.168Z,13.7
2017-10-11T02:30:41.550Z,13.7
2017-10-11T02:31:43.925Z,13.7
2017-10-11T02:32:46.312Z,13.7
2017-10-11T02:33:48.698Z,13.7
2017-10-11T02:34:51.059Z,13.6
2017-10-11T02:35:53.439Z,13.7
2017-10-11T02:36:55.822Z,13.7
2017-10-11T02:37:58.205Z,13.7
2017-10-11T02:39:00.589Z,13.7
2017-10-11T02:40:03.309Z,13.7
2017-10-11T02:41:05.686Z,13.7
2017-10-11T02:42:08.068Z,13.7
2017-10-11T02:43:10.793Z,13.7
2017-10-11T02:44:13.175Z,13.7
2017-10-11T02:45:15.557Z,13.7
2017-10-11T02:46:17.936Z,13.6
2017-10-11T02:47:33.099Z,13.7
2017-10-11T02:48:35.527Z,13.7
2017-10-11T02:49:38.010Z,13.7
2017-10-11T02:50:40.443Z,13.6
2017-10-11T02:51:42.877Z,13.6
2017-10-11T02:52:45.308Z,13.7
2017-10-11T02:53:47.745Z,13.7
2017-10-11T02:54:50.168Z,13.7
2017-10-11T02:55:52.598Z,13.7
2017-10-11T02:56:55.043Z,13.7
2017-10-11T02:57:57.465Z,13.7
2017-10-11T02:58:59.901Z,13.7
2017-10-11T03:00:02.324Z,13.7
2017-10-11T03:01:04.762Z,13.7
2017-10-11T03:02:07.200Z,13.7
2017-10-11T03:03:09.636Z,13.7
2017-10-11T03:04:12.061Z,13.7
2017-10-11T03:05:14.501Z,13.7
2017-10-11T03:06:16.939Z,13.7
2017-10-11T03:07:19.375Z,13.6
2017-10-11T03:08:21.803Z,13.7
2017-10-11T03:09:24.594Z,13.7
2017-10-11T03:10:27.030Z,13.7
2017-10-11T03:11:29.841Z,13.7
2017-10-11T03:12:32.618Z,13.7
2017-10-11T03:13:35.050Z,13.7
2017-10-11T03:14:37.831Z,13.7
2017-10-11T03:15:40.266Z,13.7
2017-10-11T03:16:42.698Z,13.7
2017-10-11T03:17:45.130Z,13.7
2017-10-11T03:18:47.543Z,13.7
2017-10-11T03:19:49.985Z,13.7
2017-10-11T03:20:52.424Z,13.7
2017-10-11T03:21:54.858Z,13.7
2017-10-11T03:22:57.652Z,13.7
2017-10-11T03:24:00.077Z,13.7
2017-10-11T03:25:02.511Z,13.7
2017-10-11T03:26:05.296Z,13.7
2017-10-11T03:27:07.729Z,13.7
2017-10-11T03:28:10.155Z,13.7
2017-10-11T03:29:12.595Z,13.7
2017-10-11T03:30:15.041Z,13.7
2017-10-11T03:31:17.488Z,13.7
2017-10-11T03:32:19.905Z,13.7
2017-10-11T03:33:22.343Z,13.7
2017-10-11T03:34:25.170Z,13.7
2017-10-11T03:35:27.604Z,13.7
2017-10-11T03:36:30.037Z,13.7
2017-10-11T03:37:32.808Z,13.7
2017-10-11T03:38:35.253Z,13.7
2017-10-11T03:39:37.693Z,13.7
2017-10-11T03:40:40.117Z,13.7
2017-10-11T03:41:42.554Z,13.6
2017-10-11T03:42:44.975Z,13.7
2017-10-11T03:43:47.764Z,13.7
2017-10-11T03:44:50.216Z,13.7
2017-10-11T03:45:52.997Z,13.7
2017-10-11T03:46:55.428Z,13.7
2017-10-11T03:47:57.872Z,13.7
2017-10-11T03:49:00.302Z,13.7
2017-10-11T03:50:02.740Z,13.7
2017-10-11T03:51:05.542Z,13.7
2017-10-11T03:52:07.966Z,13.7
2017-10-11T03:53:10.406Z,13.7
2017-10-11T03:54:12.854Z,13.7
2017-10-11T03:55:15.284Z,13.7
2017-10-11T03:56:17.709Z,13.7
2017-10-11T03:57:20.151Z,13.7
2017-10-11T03:58:22.951Z,13.7
2017-10-11T03:59:25.383Z,13.7
2017-10-11T04:00:27.823Z,13.7
2017-10-11T04:01:30.243Z,13.7
2017-10-11T04:02:32.680Z,13.7
2017-10-11T04:03:35.114Z,13.7
2017-10-11T04:04:37.549Z,13.7
2017-10-11T04:05:40.336Z,13.7
2017-10-11T04:06:42.762Z,13.7
2017-10-11T04:07:45.194Z,13.7
2017-10-11T04:08:47.643Z,13.7
2017-10-11T04:09:50.068Z,13.7
2017-10-11T04:10:52.499Z,13.7
2017-10-11T04:11:54.962Z,13.7
2017-10-11T04:12:57.404Z,13.7
2017-10-11T04:13:59.840Z,13.7
2017-10-11T04:15:02.276Z,13.7
2017-10-11T04:16:04.704Z,13.7
2017-10-11T04:17:07.146Z,13.7
2017-10-11T04:18:09.575Z,13.7
2017-10-11T04:19:12.010Z,13.7
2017-10-11T04:20:14.444Z,13.7
2017-10-11T04:21:16.867Z,13.7
2017-10-11T04:22:19.663Z,13.7
2017-10-11T04:23:22.097Z,13.7
2017-10-11T04:24:24.898Z,13.7
2017-10-11T04:25:27.706Z,13.7
2017-10-11T04:26:30.131Z,13.7
2017-10-11T04:27:32.572Z,13.7
2017-10-11T04:28:35.007Z,13.7
2017-10-11T04:29:37.444Z,13.7
2017-10-11T04:30:39.872Z,13.7
2017-10-11T04:31:42.656Z,13.7
2017-10-11T04:32:45.095Z,13.7
2017-10-11T04:33:47.522Z,13.7
2017-10-11T04:34:49.960Z,13.7
2017-10-11T04:35:52.402Z,13.7
2017-10-11T04:36:54.819Z,13.7
2017-10-11T04:37:57.612Z,13.7
2017-10-11T04:39:00.049Z,13.7
2017-10-11T04:40:02.484Z,13.7
2017-10-11T04:41:04.915Z,13.7
2017-10-11T04:42:07.345Z,13.7
2017-10-11T04:43:10.143Z,13.7
2017-10-11T04:44:12.578Z,13.7
2017-10-11T04:45:15.384Z,13.7
2017-10-11T04:46:17.823Z,13.7
2017-10-11T04:47:20.259Z,13.7
2017-10-11T04:48:22.690Z,13.7
2017-10-11T04:49:25.121Z,13.7
2017-10-11T04:50:27.554Z,13.7
2017-10-11T04:51:29.987Z,13.7
2017-10-11T04:52:32.420Z,13.7
2017-10-11T04:53:34.890Z,13.7
2017-10-11T04:54:37.321Z,13.7
2017-10-11T04:55:39.756Z,13.7
2017-10-11T04:56:42.191Z,13.7
2017-10-11T04:57:44.632Z,13.7
2017-10-11T04:58:47.068Z,13.7
2017-10-11T04:59:49.503Z,13.7
2017-10-11T05:00:51.919Z,13.7
2017-10-11T05:01:54.357Z,13.7
2017-10-11T05:02:56.796Z,13.6
2017-10-11T05:03:59.229Z,13.6
2017-10-11T05:05:02.006Z,13.6
2017-10-11T05:06:04.438Z,13.6
2017-10-11T05:07:06.868Z,13.6
2017-10-11T05:08:09.312Z,13.5
2017-10-11T05:09:11.742Z,13.5
2017-10-11T05:10:14.177Z,13.5
2017-10-11T05:11:16.611Z,13.5
2017-10-11T05:12:19.044Z,13.5
2017-10-11T05:13:21.484Z,13.5
2017-10-11T05:14:23.920Z,13.5
2017-10-11T05:15:26.341Z,13.5
2017-10-11T05:16:28.773Z,13.5
2017-10-11T05:17:31.211Z,13.5
2017-10-11T05:18:33.637Z,13.5
2017-10-11T05:19:36.417Z,13.5
2017-10-11T05:20:38.861Z,13.5
2017-10-11T05:21:41.296Z,13.5
2017-10-11T05:22:43.729Z,13.5
2017-10-11T05:23:46.173Z,13.5
2017-10-11T05:24:48.591Z,13.5
2017-10-11T05:25:51.029Z,13.5
2017-10-11T05:26:53.463Z,13.5
2017-10-11T05:27:55.897Z,13.5
2017-10-11T05:28:58.331Z,13.5
2017-10-11T05:30:01.130Z,13.5
2017-10-11T05:31:03.913Z,13.5
2017-10-11T05:32:06.359Z,13.5
2017-10-11T05:33:08.794Z,13.5
2017-10-11T05:34:11.578Z,13.5
2017-10-11T05:35:14.018Z,13.5
2017-10-11T05:36:16.453Z,13.5
2017-10-11T05:37:18.885Z,13.5
2017-10-11T05:38:21.316Z,13.5
2017-10-11T05:39:23.753Z,13.5
2017-10-11T05:40:26.192Z,13.5
2017-10-11T05:41:29.708Z,13.5
2017-10-11T05:42:32.135Z,13.5
2017-10-11T05:43:34.557Z,13.5
2017-10-11T05:44:37.360Z,13.5
2017-10-11T05:45:39.798Z,13.4
2017-10-11T05:46:42.576Z,13.4
2017-10-11T05:47:45.003Z,13.4
2017-10-11T05:48:47.797Z,13.4
2017-10-11T05:49:50.229Z,13.4
2017-10-11T05:50:53.035Z,13.4
2017-10-11T05:51:55.459Z,13.4
2017-10-11T05:52:57.885Z,13.4
2017-10-11T05:54:00.315Z,13.4
2017-10-11T05:55:03.113Z,13.4
2017-10-11T05:56:05.533Z,13.4
2017-10-11T05:57:07.967Z,13.4
2017-10-11T05:58:10.416Z,13.4
2017-10-11T05:59:13.196Z,13.4
2017-10-11T06:00:15.644Z,13.4
2017-10-11T06:01:18.092Z,13.4
2017-10-11T06:02:20.888Z,13.4
2017-10-11T06:03:23.337Z,13.4
2017-10-11T06:04:25.762Z,13.4
2017-10-11T06:05:28.185Z,13.4
2017-10-11T06:06:30.632Z,13.4
2017-10-11T06:07:33.420Z,13.4
2017-10-11T06:08:35.853Z,13.4
2017-10-11T06:09:38.291Z,13.4
2017-10-11T06:10:40.723Z,13.4
2017-10-11T06:11:43.154Z,13.4
2017-10-11T06:12:45.587Z,13.4
2017-10-11T06:13:48.015Z,13.4
2017-10-11T06:14:50.468Z,13.4
2017-10-11T06:15:52.893Z,13.4
2017-10-11T06:16:55.680Z,13.4
2017-10-11T06:17:58.114Z,13.4
2017-10-11T06:19:00.548Z,13.4
2017-10-11T06:20:02.988Z,13.4
2017-10-11T06:21:05.407Z,13.4
2017-10-11T06:22:07.857Z,13.4
2017-10-11T06:23:10.287Z,13.4
2017-10-11T06:24:12.709Z,13.4
2017-10-11T06:25:15.143Z,13.4
2017-10-11T06:26:17.582Z,13.4
2017-10-11T06:27:20.377Z,13.4
2017-10-11T06:28:23.519Z,13.4
2017-10-11T06:29:25.946Z,13.4
2017-10-11T06:30:28.385Z,13.4
2017-10-11T06:31:30.830Z,13.4
2017-10-11T06:32:33.619Z,13.4
2017-10-11T06:33:36.052Z,13.4
2017-10-11T06:34:38.483Z,13.4
2017-10-11T06:35:40.924Z,13.4
2017-10-11T06:36:43.356Z,13.5
2017-10-11T06:37:45.790Z,13.5
2017-10-11T06:38:48.216Z,13.5
2017-10-11T06:39:50.651Z,13.5
2017-10-11T06:40:53.081Z,13.5
2017-10-11T06:41:55.521Z,13.5
2017-10-11T06:42:57.945Z,13.5
2017-10-11T06:44:00.383Z,13.5
2017-10-11T06:45:02.817Z,13.5
2017-10-11T06:46:05.250Z,13.6
2017-10-11T06:47:07.690Z,13.6
2017-10-11T06:48:10.118Z,13.6
2017-10-11T06:49:12.544Z,13.6
2017-10-11T06:50:14.983Z,13.6
2017-10-11T06:51:17.409Z,13.6
2017-10-11T06:52:19.843Z,13.6
2017-10-11T06:53:22.275Z,13.6
2017-10-11T06:54:24.702Z,13.6
2017-10-11T06:55:27.121Z,13.6
2017-10-11T06:56:29.567Z,13.6
2017-10-11T06:57:32.361Z,13.7
2017-10-11T06:58:34.791Z,13.7
2017-10-11T06:59:37.235Z,13.7
2017-10-11T07:00:39.665Z,13.7
2017-10-11T07:01:42.103Z,13.8
2017-10-11T07:02:44.542Z,13.8
2017-10-11T07:03:47.326Z,13.8
2017-10-11T07:04:49.764Z,13.8
2017-10-11T07:05:52.195Z,13.8
2017-10-11T07:06:54.619Z,13.8
2017-10-11T07:07:57.055Z,13.8
2017-10-11T07:08:59.485Z,13.8
2017-10-11T07:10:01.921Z,13.8
2017-10-11T07:11:04.716Z,13.8
2017-10-11T07:12:07.148Z,13.8
2017-10-11T07:13:09.584Z,13.8
2017-10-11T07:14:12.034Z,13.8
2017-10-11T07:15:14.463Z,13.8
2017-10-11T07:16:16.895Z,13.8
2017-10-11T07:17:19.326Z,13.8
2017-10-11T07:18:21.764Z,13.8
2017-10-11T07:19:24.196Z,13.8
2017-10-11T07:20:26.632Z,13.8
2017-10-11T07:21:29.056Z,13.8
2017-10-11T07:22:31.493Z,13.8
2017-10-11T07:23:33.927Z,13.8
2017-10-11T07:24:36.365Z,13.8
2017-10-11T07:25:38.798Z,13.8
2017-10-11T07:26:41.242Z,13.8
2017-10-11T07:27:44.028Z,13.8
2017-10-11T07:28:46.842Z,13.9
2017-10-11T07:29:49.631Z,13.9
2017-10-11T07:30:52.423Z,13.9
2017-10-11T07:31:54.855Z,13.9
2017-10-11T07:32:57.289Z,13.9
2017-10-11T07:33:59.727Z,14
2017-10-11T07:35:02.158Z,14
2017-10-11T07:36:04.584Z,14
2017-10-11T07:37:07.016Z,14
2017-10-11T07:38:09.458Z,14
2017-10-11T07:39:11.893Z,14
2017-10-11T07:40:14.314Z,14
2017-10-11T07:41:16.752Z,14
2017-10-11T07:42:19.193Z,14
2017-10-11T07:43:21.642Z,14
2017-10-11T07:44:24.077Z,14
2017-10-11T07:45:26.510Z,14
2017-10-11T07:46:28.940Z,14
2017-10-11T07:47:31.737Z,14.1
2017-10-11T07:48:34.168Z,14.1
2017-10-11T07:49:36.590Z,14.1
2017-10-11T07:50:39.391Z,14.1
2017-10-11T07:51:42.179Z,14.1
2017-10-11T07:52:44.615Z,14.1
2017-10-11T07:53:47.051Z,14.1
2017-10-11T07:54:49.856Z,14.2
2017-10-11T07:55:52.292Z,14.2
2017-10-11T07:56:54.721Z,14.2
2017-10-11T07:57:57.151Z,14.2
2017-10-11T07:58:59.587Z,14.3
2017-10-11T08:00:02.012Z,14.3
2017-10-11T08:01:04.448Z,14.3
2017-10-11T08:02:07.218Z,14.3
2017-10-11T08:03:10.013Z,14.4
2017-10-11T08:04:12.459Z,14.4
2017-10-11T08:05:15.241Z,14.4
2017-10-11T08:06:17.666Z,14.4
2017-10-11T08:07:20.109Z,14.4
2017-10-11T08:08:22.543Z,14.4
2017-10-11T08:09:24.979Z,14.4
2017-10-11T08:10:27.422Z,14.4
2017-10-11T08:11:29.840Z,14.4
2017-10-11T08:12:32.279Z,14.4
2017-10-11T08:13:34.714Z,14.5
2017-10-11T08:14:37.146Z,14.4
2017-10-11T08:15:39.579Z,14.5
2017-10-11T08:16:42.019Z,14.5
2017-10-11T08:17:44.449Z,14.5
2017-10-11T08:18:46.899Z,14.6
2017-10-11T08:19:49.331Z,14.6
2017-10-11T08:20:51.762Z,14.6
2017-10-11T08:21:54.198Z,14.6
2017-10-11T08:22:56.634Z,14.6
2017-10-11T08:23:59.421Z,14.6
2017-10-11T08:25:01.857Z,14.6
2017-10-11T08:26:04.287Z,14.6
2017-10-11T08:27:06.713Z,14.6
2017-10-11T08:28:09.164Z,14.6
2017-10-11T08:29:11.591Z,14.7
2017-10-11T08:30:14.027Z,14.7
2017-10-11T08:31:16.458Z,14.6
2017-10-11T08:32:18.893Z,14.6
2017-10-11T08:33:21.339Z,14.7
2017-10-11T08:34:24.127Z,14.6
2017-10-11T08:35:26.570Z,14.6
2017-10-11T08:36:29.005Z,14.7
2017-10-11T08:37:31.456Z,14.7
2017-10-11T08:38:33.887Z,14.7
2017-10-11T08:39:36.314Z,14.7
2017-10-11T08:40:38.744Z,14.7
2017-10-11T08:41:41.178Z,14.7
2017-10-11T08:42:43.613Z,14.7
2017-10-11T08:43:46.047Z,14.7
2017-10-11T08:44:48.479Z,14.7
2017-10-11T08:45:50.913Z,14.8
2017-10-11T08:46:53.360Z,14.8
2017-10-11T08:47:55.795Z,14.8
2017-10-11T08:48:58.230Z,14.8
2017-10-11T08:50:00.670Z,14.8
2017-10-11T08:51:03.119Z,14.8
2017-10-11T08:52:05.541Z,14.8
2017-10-11T08:53:07.977Z,14.8
2017-10-11T08:54:10.773Z,14.8
2017-10-11T08:55:13.560Z,14.8
2017-10-11T08:56:15.996Z,14.8
2017-10-11T08:57:18.438Z,14.8
2017-10-11T08:58:20.869Z,14.8
2017-10-11T08:59:23.314Z,14.8
2017-10-11T09:00:26.101Z,14.8
2017-10-11T09:01:28.883Z,14.8
2017-10-11T09:02:31.318Z,14.8
2017-10-11T09:03:33.750Z,14.8
2017-10-11T09:04:36.184Z,14.8
2017-10-11T09:05:38.981Z,14.8
2017-10-11T09:06:41.421Z,14.8
2017-10-11T09:07:43.851Z,14.8
2017-10-11T09:08:46.283Z,14.8
2017-10-11T09:09:49.173Z,14.7
2017-10-11T09:10:51.592Z,14.7
2017-10-11T09:11:54.045Z,14.7
2017-10-11T09:12:56.818Z,14.7
2017-10-11T09:13:59.613Z,14.7
2017-10-11T09:15:02.056Z,14.7
2017-10-11T09:16:04.493Z,14.7
2017-10-11T09:17:06.929Z,14.6
2017-10-11T09:18:09.369Z,14.6
2017-10-11T09:19:11.797Z,14.6
2017-10-11T09:20:14.221Z,14.5
2017-10-11T09:21:17.014Z,14.5
2017-10-11T09:22:19.447Z,14.4
2017-10-11T09:23:21.880Z,14.4
2017-10-11T09:24:24.314Z,14.4
2017-10-11T09:25:26.746Z,14.3
2017-10-11T09:26:29.181Z,14.3
2017-10-11T09:27:31.632Z,14.3
2017-10-11T09:28:34.067Z,14.3
2017-10-11T09:29:36.496Z,14.3
2017-10-11T09:30:38.929Z,14.2
2017-10-11T09:31:41.362Z,14.2
2017-10-11T09:32:44.147Z,14.1
2017-10-11T09:33:46.586Z,14.1
2017-10-11T09:34:49.008Z,14.1
2017-10-11T09:35:51.458Z,14.1
2017-10-11T09:36:53.890Z,14.1
2017-10-11T09:37:56.325Z,14.1
2017-10-11T09:38:58.764Z,14.1
2017-10-11T09:40:01.191Z,14.1
2017-10-11T09:41:03.627Z,14.1
2017-10-11T09:42:06.073Z,14.1
2017-10-11T09:43:08.511Z,14.1
2017-10-11T09:44:10.941Z,14.1
2017-10-11T09:45:13.382Z,14.1
2017-10-11T09:46:16.175Z,14.1
2017-10-11T09:47:18.605Z,14.1
2017-10-11T09:48:21.051Z,14
2017-10-11T09:49:23.479Z,14
2017-10-11T09:50:25.916Z,14
2017-10-11T09:51:28.347Z,14
2017-10-11T09:52:30.792Z,14
2017-10-11T09:53:33.229Z,14
2017-10-11T09:54:36.044Z,14
2017-10-11T09:55:38.469Z,14
2017-10-11T09:56:40.911Z,14
2017-10-11T09:57:43.346Z,14
2017-10-11T09:58:45.778Z,14
2017-10-11T09:59:48.212Z,14
2017-10-11T10:00:50.641Z,14
2017-10-11T10:01:53.439Z,14.1
2017-10-11T10:02:55.880Z,14.1
2017-10-11T10:03:58.330Z,14.2
2017-10-11T10:05:00.765Z,14.2
2017-10-11T10:06:03.189Z,14.3
2017-10-11T10:07:05.631Z,14.4
2017-10-11T10:08:08.071Z,14.4
2017-10-11T10:09:10.507Z,14.5
2017-10-11T10:10:13.293Z,14.5
2017-10-11T10:11:15.737Z,14.6
2017-10-11T10:12:18.172Z,14.6
2017-10-11T10:13:20.609Z,14.7
2017-10-11T10:14:23.045Z,14.7
2017-10-11T10:15:25.481Z,14.8
2017-10-11T10:16:27.905Z,14.7
2017-10-11T10:17:30.346Z,14.6
2017-10-11T10:18:33.141Z,14.6
2017-10-11T10:19:35.564Z,14.7
2017-10-11T10:20:38.005Z,14.6
2017-10-11T10:21:40.441Z,14.7
2017-10-11T10:22:42.875Z,14.7
2017-10-11T10:23:45.660Z,14.6
2017-10-11T10:24:48.104Z,14.6
2017-10-11T10:25:50.523Z,14.5
2017-10-11T10:26:52.973Z,14.5
2017-10-11T10:27:55.398Z,14.4
2017-10-11T10:28:57.833Z,14.4
2017-10-11T10:30:00.267Z,14.4
2017-10-11T10:31:03.057Z,14.4
2017-10-11T10:32:05.492Z,14.4
2017-10-11T10:33:07.941Z,14.5
2017-10-11T10:34:10.369Z,14.5
2017-10-11T10:35:12.806Z,14.5
2017-10-11T10:36:15.238Z,14.6
2017-10-11T10:37:17.676Z,14.6
2017-10-11T10:38:20.105Z,14.6
2017-10-11T10:39:22.551Z,14.6
2017-10-11T10:40:24.977Z,14.6
2017-10-11T10:41:27.412Z,14.6
2017-10-11T10:42:29.843Z,14.6
2017-10-11T10:43:32.282Z,14.6
2017-10-11T10:44:34.712Z,14.5
2017-10-11T10:45:37.154Z,14.5
2017-10-11T10:46:39.585Z,14.5
2017-10-11T10:47:42.022Z,14.5
2017-10-11T10:48:44.458Z,14.6
2017-10-11T10:49:46.900Z,14.6
2017-10-11T10:50:49.326Z,14.6
2017-10-11T10:51:52.123Z,14.6
2017-10-11T10:52:54.569Z,14.6
2017-10-11T10:53:56.998Z,14.6
2017-10-11T10:54:59.423Z,14.6
2017-10-11T10:56:01.857Z,14.6
2017-10-11T10:57:04.283Z,14.6
2017-10-11T10:58:06.734Z,14.6
2017-10-11T10:59:09.169Z,14.6
2017-10-11T11:00:11.592Z,14.6
2017-10-11T11:01:14.743Z,14.6
2017-10-11T11:02:17.184Z,14.6
2017-10-11T11:03:19.613Z,14.6
2017-10-11T11:04:22.053Z,14.6
2017-10-11T11:05:24.845Z,14.6
2017-10-11T11:06:27.288Z,14.6
2017-10-11T11:07:29.736Z,14.6
2017-10-11T11:08:32.882Z,14.6
2017-10-11T11:09:35.318Z,14.6
2017-10-11T11:10:38.099Z,14.5
2017-10-11T11:11:40.888Z,14.5
2017-10-11T11:12:43.340Z,14.5
2017-10-11T11:13:46.126Z,14.6
2017-10-11T11:14:48.552Z,14.6
2017-10-11T11:15:50.987Z,14.5
2017-10-11T11:16:53.431Z,14.5
2017-10-11T11:17:56.237Z,14.5
2017-10-11T11:18:58.678Z,14.5
2017-10-11T11:20:01.123Z,14.5
2017-10-11T11:21:03.555Z,14.4
2017-10-11T11:22:06.352Z,14.4
2017-10-11T11:23:08.787Z,14.4
2017-10-11T11:24:11.203Z,14.4
2017-10-11T11:25:13.656Z,14.4
2017-10-11T11:26:16.082Z,14.4
2017-10-11T11:27:18.519Z,14.4
2017-10-11T11:28:20.959Z,14.4
2017-10-11T11:29:23.396Z,14.4
2017-10-11T11:30:25.829Z,14.4
2017-10-11T11:31:28.268Z,14.4
2017-10-11T11:32:30.691Z,14.4
2017-10-11T11:33:33.491Z,14.4
2017-10-11T11:34:35.935Z,14.3
2017-10-11T11:35:38.365Z,14.4
2017-10-11T11:36:41.162Z,14.3
2017-10-11T11:37:43.597Z,14.3
2017-10-11T11:38:46.019Z,14.3
2017-10-11T11:39:48.466Z,14.4
2017-10-11T11:40:50.897Z,14.4
2017-10-11T11:41:53.331Z,14.3
2017-10-11T11:42:55.770Z,14.3
2017-10-11T11:43:58.572Z,14.3
2017-10-11T11:45:01.011Z,14.3
2017-10-11T11:46:03.460Z,14.3
2017-10-11T11:47:05.888Z,14.3
2017-10-11T11:48:08.310Z,14.3
2017-10-11T11:49:10.744Z,14.3
2017-10-11T11:50:13.199Z,14.3
2017-10-11T11:51:15.630Z,14.3
2017-10-11T11:52:18.070Z,14.3
2017-10-11T11:53:20.876Z,14.3
2017-10-11T11:54:23.309Z,14.3
2017-10-11T11:55:25.745Z,14.3
2017-10-11T11:56:28.185Z,14.3
2017-10-11T11:57:30.610Z,14.2
2017-10-11T11:58:33.048Z,14.2
2017-10-11T11:59:35.487Z,14.2
2017-10-11T12:00:37.923Z,14.2
2017-10-11T12:01:40.365Z,14.3
2017-10-11T12:02:42.798Z,14.2
2017-10-11T12:03:45.240Z,14.2
2017-10-11T12:04:48.041Z,14.2
2017-10-11T12:05:50.850Z,14.3
2017-10-11T12:06:53.283Z,14.2
2017-10-11T12:07:55.720Z,14.2
2017-10-11T12:08:58.150Z,14.3
2017-10-11T12:10:00.586Z,14.3
2017-10-11T12:11:03.025Z,14.3
2017-10-11T12:12:05.800Z,14.2
2017-10-11T12:13:08.243Z,14.3
2017-10-11T12:14:10.694Z,14.3
2017-10-11T12:15:13.123Z,14.3
2017-10-11T12:16:15.562Z,14.3
2017-10-11T12:17:17.987Z,14.3
2017-10-11T12:18:20.423Z,14.3
2017-10-11T12:19:22.863Z,14.3
2017-10-11T12:20:25.294Z,14.3
2017-10-11T12:21:27.750Z,14.3
2017-10-11T12:22:30.190Z,14.3
2017-10-11T12:23:32.602Z,14.3
2017-10-11T12:24:35.055Z,14.3
2017-10-11T12:25:37.499Z,14.3
2017-10-11T12:26:39.915Z,14.3
2017-10-11T12:27:42.352Z,14.3
2017-10-11T12:28:45.140Z,14.3
2017-10-11T12:29:47.569Z,14.3
2017-10-11T12:30:50.015Z,14.3
2017-10-11T12:31:52.450Z,14.3
2017-10-11T12:32:54.885Z,14.3
2017-10-11T12:33:58.026Z,14.3
2017-10-11T12:35:00.454Z,14.3
2017-10-11T12:36:02.897Z,14.3
2017-10-11T12:37:05.325Z,14.3
2017-10-11T12:38:08.131Z,14.3
2017-10-11T12:39:10.572Z,14.3
2017-10-11T12:40:13.007Z,14.3
2017-10-11T12:41:15.439Z,14.3
2017-10-11T12:42:17.883Z,14.4
2017-10-11T12:43:20.318Z,14.3
2017-10-11T12:44:22.755Z,14.4
2017-10-11T12:45:25.567Z,14.4
2017-10-11T12:46:27.999Z,14.4
2017-10-11T12:47:30.425Z,14.4
2017-10-11T12:48:32.876Z,14.4
2017-10-11T12:49:35.309Z,14.4
2017-10-11T12:50:37.748Z,14.4
2017-10-11T12:51:40.184Z,14.4
2017-10-11T12:52:42.616Z,14.4
2017-10-11T12:53:45.047Z,14.4
2017-10-11T12:54:47.481Z,14.4
2017-10-11T12:55:49.909Z,14.4
2017-10-11T12:56:52.346Z,14.4
2017-10-11T12:57:55.128Z,14.4
2017-10-11T12:58:57.563Z,14.4
2017-10-11T13:00:00.001Z,14.4
2017-10-11T13:01:02.441Z,14.4
2017-10-11T13:02:04.873Z,14.4
2017-10-11T13:03:07.306Z,14.4
2017-10-11T13:04:09.739Z,14.4
2017-10-11T13:05:12.533Z,14.4
2017-10-11T13:06:14.965Z,14.4
2017-10-11T13:07:17.406Z,14.4
2017-10-11T13:08:19.835Z,14.4
2017-10-11T13:09:22.282Z,14.4
2017-10-11T13:10:24.711Z,14.4
2017-10-11T13:11:27.141Z,14.5
2017-10-11T13:12:29.575Z,14.5
2017-10-11T13:13:32.013Z,14.4
2017-10-11T13:14:34.792Z,14.4
2017-10-11T13:15:37.954Z,14.5
2017-10-11T13:16:40.391Z,14.5
2017-10-11T13:17:42.828Z,14.5
2017-10-11T13:18:45.281Z,14.5
2017-10-11T13:19:47.716Z,14.5
2017-10-11T13:20:50.141Z,14.5
2017-10-11T13:21:52.576Z,14.5
2017-10-11T13:22:55.008Z,14.5
2017-10-11T13:23:57.449Z,14.5
2017-10-11T13:25:00.246Z,14.5
2017-10-11T13:26:02.677Z,14.5
2017-10-11T13:27:05.120Z,14.6
2017-10-11T13:28:07.567Z,14.6
2017-10-11T13:29:09.997Z,14.6
2017-10-11T13:30:12.434Z,14.6
2017-10-11T13:31:14.874Z,14.6
2017-10-11T13:32:17.310Z,14.6
2017-10-11T13:33:19.755Z,14.6
2017-10-11T13:34:22.191Z,14.6
2017-10-11T13:35:24.627Z,14.6
2017-10-11T13:36:27.062Z,14.6
2017-10-11T13:37:29.496Z,14.6
2017-10-11T13:38:31.928Z,14.6
2017-10-11T13:39:34.366Z,14.6
2017-10-11T13:40:36.804Z,14.6
2017-10-11T13:41:39.244Z,14.6
2017-10-11T13:42:41.670Z,14.6
2017-10-11T13:43:44.114Z,14.6
2017-10-11T13:44:46.548Z,14.6
2017-10-11T13:45:48.983Z,14.7
2017-10-11T13:46:52.129Z,14.7
2017-10-11T13:47:54.934Z,14.7
2017-10-11T13:48:57.373Z,14.7
2017-10-11T13:49:59.804Z,14.7
2017-10-11T13:51:02.237Z,14.7
2017-10-11T13:52:04.659Z,14.7
2017-10-11T13:53:07.107Z,14.7
2017-10-11T13:54:09.538Z,14.7